Mitchel — WDE7728 — position and weather

sailwx.info

Track history (hours):
 
Tides and Currents Weather Stations Pressure Air Temp Water Temp Dewpoint Dewpoint Depression Visibility Wind Speed Wind Dir Waves Ship Positions

Mitchel

Owner: AMERICAN TUGS INC., SAN JUAN, PR. More information available from US FCC via Universal Licensing System and Coast Guard Vessel Documentation Center.

Last reported at 2016-Nov-18 20:23 UTC. Time now 2016-Dec-05 08:34 UTC.
Position N 18°28' W 066°06'.
Warning: this ship's position is 16 days out of date.

Length 27 m; draft 3 m.

Type: Tug. MMSI: 367346890.

Date/timePositionNaut miles runAvg speedWind from/ knotsBaromVisibWave heightAir tempDewpointWater temp
2016-Nov-18 20:23N 18°28' W 066°06'0 0.0
2016-Nov-18 18:23N 18°28' W 066°06'0 0.0
2016-Nov-18 14:32N 18°28' W 066°06'0 0.0
2016-Nov-18 12:08N 18°28' W 066°06'0 0.0
2016-Nov-18 00:33N 18°28' W 066°06'2 1.5
2016-Nov-17 23:33N 18°28' W 066°08'5 4.4
2016-Nov-17 22:24N 18°30' W 066°03'37 3.3
2016-Nov-17 11:19N 17°54' W 066°02'16 5.9
2016-Nov-17 08:33N 17°51' W 066°19'12 5.9
2016-Nov-17 06:33N 17°50' W 066°31'10 2.5
2016-Nov-17 02:33N 17°58' W 066°37'7 2.4
2016-Nov-16 23:33N 17°52' W 066°33'10 9.5
2016-Nov-16 22:33N 17°53' W 066°23'10 5.0
2016-Nov-16 20:33N 17°57' W 066°14'0 0.0
2016-Nov-16 19:33N 17°57' W 066°14'2 1.6
2016-Nov-16 18:33N 17°55' W 066°14'9 8.7
2016-Nov-16 17:33N 17°54' W 066°23'9 8.9
2016-Nov-16 16:33N 17°52' W 066°32'11 2.5
2016-Nov-16 12:22N 17°52' W 066°21'12 4.3
2016-Nov-16 09:33N 17°56' W 066°09'0 0.0
2016-Nov-16 08:33N 17°56' W 066°09'0 0.0
2016-Nov-16 07:33N 17°56' W 066°09'0 0.0
2016-Nov-16 06:33N 17°56' W 066°09'0 0.0
2016-Nov-16 04:33N 17°56' W 066°09'0 0.0
2016-Nov-16 03:33N 17°56' W 066°09'0 0.0
2016-Nov-16 02:33N 17°56' W 066°09'0 0.0
2016-Nov-16 01:33N 17°56' W 066°09'0 0.0
2016-Nov-15 21:33N 17°56' W 066°09'0 0.0
2016-Nov-15 19:33N 17°56' W 066°09'0 0.0
2016-Nov-15 18:33N 17°56' W 066°09'0 0.0
2016-Nov-15 13:33N 17°56' W 066°09'0 0.0
2016-Nov-15 12:33N 17°56' W 066°09'0 0.0
2016-Nov-15 11:33N 17°56' W 066°09'0 0.0
2016-Nov-15 10:33N 17°56' W 066°09'0 0.0
2016-Nov-15 07:33N 17°56' W 066°09'0 0.0
2016-Nov-15 06:33N 17°56' W 066°09'0 0.0
2016-Nov-15 05:51N 17°56' W 066°09'0 0.0
2016-Nov-15 03:33N 17°56' W 066°09'0 0.0
2016-Nov-15 02:33N 17°56' W 066°09'0 0.0
2016-Nov-15 00:33N 17°56' W 066°09'0 0.0
2016-Nov-14 23:42N 17°56' W 066°09'0 0.0
2016-Nov-14 19:30N 17°56' W 066°09'0 0.0
2016-Nov-14 17:33N 17°56' W 066°09'0 0.0
2016-Nov-14 16:33N 17°56' W 066°09'0 0.0
2016-Nov-14 15:33N 17°56' W 066°09'0 0.0
2016-Nov-14 11:33N 17°56' W 066°09'0 0.0
2016-Nov-14 08:33N 17°56' W 066°09'0 0.0
2016-Nov-14 05:21N 17°56' W 066°09'0 0.0
2016-Nov-14 00:33N 17°56' W 066°09'0 0.0
2016-Nov-13 23:33N 17°56' W 066°09'0 0.0
2016-Nov-13 22:33N 17°56' W 066°09'0 0.0
2016-Nov-13 19:33N 17°56' W 066°09'0 0.0
2016-Nov-13 18:33N 17°56' W 066°09'0 0.0
2016-Nov-13 17:33N 17°56' W 066°09'0 0.0
2016-Nov-13 15:33N 17°56' W 066°09'0 0.0
2016-Nov-13 13:33N 17°56' W 066°09'0 0.0
2016-Nov-13 10:33N 17°56' W 066°09'0 0.0
2016-Nov-13 08:33N 17°56' W 066°09'0 0.0
2016-Nov-13 05:33N 17°56' W 066°09'0 0.0
2016-Nov-13 03:27N 17°56' W 066°09'0 0.0
2016-Nov-12 23:33N 17°56' W 066°09'0 0.0
2016-Nov-12 21:33N 17°56' W 066°09'0 0.0
2016-Nov-12 19:33N 17°56' W 066°09'0 0.0
2016-Nov-12 17:33N 17°56' W 066°09'0 0.0
2016-Nov-12 16:33N 17°56' W 066°09'0 0.0
2016-Nov-12 15:33N 17°56' W 066°09'0 0.0
2016-Nov-12 14:33N 17°56' W 066°09'0 0.0
2016-Nov-12 13:33N 17°56' W 066°09'0 0.0
2016-Nov-12 12:33N 17°56' W 066°09'0 0.0
2016-Nov-12 11:09N 17°56' W 066°09'0 0.0
2016-Nov-12 09:27N 17°56' W 066°09'0 0.0
2016-Nov-12 06:33N 17°56' W 066°09'0 0.0
2016-Nov-12 03:33N 17°56' W 066°09'0 0.0
2016-Nov-12 02:33N 17°56' W 066°09'0 0.0
2016-Nov-12 00:33N 17°56' W 066°09'0 0.0
2016-Nov-11 23:33N 17°56' W 066°09'0 0.0
2016-Nov-11 19:33N 17°56' W 066°09'0 0.0
2016-Nov-11 15:33N 17°56' W 066°09'0 0.0
2016-Nov-11 14:33N 17°56' W 066°09'0 0.0
2016-Nov-11 10:33N 17°56' W 066°09'0 0.0
2016-Nov-11 09:33N 17°56' W 066°09'0 0.0
2016-Nov-11 06:30N 17°56' W 066°09'0 0.0
2016-Nov-11 05:27N 17°56' W 066°09'0 0.0
2016-Nov-11 04:33N 17°56' W 066°09'0 0.0
2016-Nov-11 03:33N 17°56' W 066°09'0 0.0
2016-Nov-11 02:30N 17°56' W 066°09'0 0.0
2016-Nov-11 01:33N 17°56' W 066°09'0 0.0
2016-Nov-11 00:33N 17°56' W 066°09'0 0.0
2016-Nov-10 23:33N 17°56' W 066°09'0 0.0
2016-Nov-10 22:33N 17°56' W 066°09'0 0.0
2016-Nov-10 20:33N 17°56' W 066°09'0 0.0
2016-Nov-10 18:33N 17°56' W 066°09'0 0.0
2016-Nov-10 16:33N 17°56' W 066°09'0 0.0
2016-Nov-10 15:33N 17°56' W 066°09'0 0.0
2016-Nov-10 11:33N 17°56' W 066°09'0 0.0
2016-Nov-10 10:33N 17°56' W 066°09'0 0.0
2016-Nov-10 09:33N 17°56' W 066°09'0 0.0
2016-Nov-10 08:33N 17°56' W 066°09'0 0.0
2016-Nov-10 07:33N 17°56' W 066°09'0 0.0
2016-Nov-10 06:33N 17°56' W 066°09'0 0.0
2016-Nov-10 05:33N 17°56' W 066°09'0 0.0
2016-Nov-10 04:33N 17°56' W 066°09'0 0.0
2016-Nov-10 00:33N 17°56' W 066°09'0 0.0
2016-Nov-09 22:33N 17°56' W 066°09'0 0.0
2016-Nov-09 20:36N 17°56' W 066°09'0 0.0
2016-Nov-09 19:51N 17°56' W 066°09'0 0.0
2016-Nov-09 19:03N 17°56' W 066°09'0 0.0
2016-Nov-09 18:33N 17°56' W 066°09'0 0.0
2016-Nov-09 17:33N 17°56' W 066°09'0 0.0
2016-Nov-09 15:33N 17°56' W 066°09'0 0.0
2016-Nov-09 13:30N 17°56' W 066°09'0 0.0
2016-Nov-09 08:33N 17°56' W 066°09'0 0.0
2016-Nov-09 07:33N 17°56' W 066°09'0 0.0
2016-Nov-09 05:33N 17°56' W 066°09'0 0.0
2016-Nov-09 04:33N 17°56' W 066°09'0 0.0
2016-Nov-09 02:33N 17°56' W 066°09'0 0.0
2016-Nov-08 23:33N 17°56' W 066°09'0 0.0
2016-Nov-08 22:30N 17°56' W 066°09'0 0.0
2016-Nov-08 21:33N 17°56' W 066°09'0 0.0
2016-Nov-08 20:33N 17°56' W 066°09'  
Track history (hours):
 
Tides and Currents Weather Stations Pressure Air Temp Water Temp Dewpoint Dewpoint Depression Visibility Wind Speed Wind Dir Waves Ship Positions

Mitchel

Owner: AMERICAN TUGS INC., SAN JUAN, PR. More information available from US FCC via Universal Licensing System and Coast Guard Vessel Documentation Center.

Last reported at 2016-Nov-18 20:23 UTC. Time now 2016-Dec-05 08:34 UTC.
Position N 18°28' W 066°06'.
Warning: this ship's position is 16 days out of date.

Length 27 m; draft 3 m.

Type: Tug. MMSI: 367346890.

Date/timePositionNaut miles runAvg speedWind from/ knotsBaromVisibWave heightAir tempDewpointWater temp
2016-Nov-18 20:23N 18°28' W 066°06'0 0.0
2016-Nov-18 18:23N 18°28' W 066°06'0 0.0
2016-Nov-18 14:32N 18°28' W 066°06'0 0.0
2016-Nov-18 12:08N 18°28' W 066°06'0 0.0
2016-Nov-18 00:33N 18°28' W 066°06'2 1.5
2016-Nov-17 23:33N 18°28' W 066°08'5 4.4
2016-Nov-17 22:24N 18°30' W 066°03'37 3.3
2016-Nov-17 11:19N 17°54' W 066°02'16 5.9
2016-Nov-17 08:33N 17°51' W 066°19'12 5.9
2016-Nov-17 06:33N 17°50' W 066°31'10 2.5
2016-Nov-17 02:33N 17°58' W 066°37'7 2.4
2016-Nov-16 23:33N 17°52' W 066°33'10 9.5
2016-Nov-16 22:33N 17°53' W 066°23'10 5.0
2016-Nov-16 20:33N 17°57' W 066°14'0 0.0
2016-Nov-16 19:33N 17°57' W 066°14'2 1.6
2016-Nov-16 18:33N 17°55' W 066°14'9 8.7
2016-Nov-16 17:33N 17°54' W 066°23'9 8.9
2016-Nov-16 16:33N 17°52' W 066°32'11 2.5
2016-Nov-16 12:22N 17°52' W 066°21'12 4.3
2016-Nov-16 09:33N 17°56' W 066°09'0 0.0
2016-Nov-16 08:33N 17°56' W 066°09'0 0.0
2016-Nov-16 07:33N 17°56' W 066°09'0 0.0
2016-Nov-16 06:33N 17°56' W 066°09'0 0.0
2016-Nov-16 04:33N 17°56' W 066°09'0 0.0
2016-Nov-16 03:33N 17°56' W 066°09'0 0.0
2016-Nov-16 02:33N 17°56' W 066°09'0 0.0
2016-Nov-16 01:33N 17°56' W 066°09'0 0.0
2016-Nov-15 21:33N 17°56' W 066°09'0 0.0
2016-Nov-15 19:33N 17°56' W 066°09'0 0.0
2016-Nov-15 18:33N 17°56' W 066°09'0 0.0
2016-Nov-15 13:33N 17°56' W 066°09'0 0.0
2016-Nov-15 12:33N 17°56' W 066°09'0 0.0
2016-Nov-15 11:33N 17°56' W 066°09'0 0.0
2016-Nov-15 10:33N 17°56' W 066°09'0 0.0
2016-Nov-15 07:33N 17°56' W 066°09'0 0.0
2016-Nov-15 06:33N 17°56' W 066°09'0 0.0
2016-Nov-15 05:51N 17°56' W 066°09'0 0.0
2016-Nov-15 03:33N 17°56' W 066°09'0 0.0
2016-Nov-15 02:33N 17°56' W 066°09'0 0.0
2016-Nov-15 00:33N 17°56' W 066°09'0 0.0
2016-Nov-14 23:42N 17°56' W 066°09'0 0.0
2016-Nov-14 19:30N 17°56' W 066°09'0 0.0
2016-Nov-14 17:33N 17°56' W 066°09'0 0.0
2016-Nov-14 16:33N 17°56' W 066°09'0 0.0
2016-Nov-14 15:33N 17°56' W 066°09'0 0.0
2016-Nov-14 11:33N 17°56' W 066°09'0 0.0
2016-Nov-14 08:33N 17°56' W 066°09'0 0.0
2016-Nov-14 05:21N 17°56' W 066°09'0 0.0
2016-Nov-14 00:33N 17°56' W 066°09'0 0.0
2016-Nov-13 23:33N 17°56' W 066°09'0 0.0
2016-Nov-13 22:33N 17°56' W 066°09'0 0.0
2016-Nov-13 19:33N 17°56' W 066°09'0 0.0
2016-Nov-13 18:33N 17°56' W 066°09'0 0.0
2016-Nov-13 17:33N 17°56' W 066°09'0 0.0
2016-Nov-13 15:33N 17°56' W 066°09'0 0.0
2016-Nov-13 13:33N 17°56' W 066°09'0 0.0
2016-Nov-13 10:33N 17°56' W 066°09'0 0.0
2016-Nov-13 08:33N 17°56' W 066°09'0 0.0
2016-Nov-13 05:33N 17°56' W 066°09'0 0.0
2016-Nov-13 03:27N 17°56' W 066°09'0 0.0
2016-Nov-12 23:33N 17°56' W 066°09'0 0.0
2016-Nov-12 21:33N 17°56' W 066°09'0 0.0
2016-Nov-12 19:33N 17°56' W 066°09'0 0.0
2016-Nov-12 17:33N 17°56' W 066°09'0 0.0
2016-Nov-12 16:33N 17°56' W 066°09'0 0.0
2016-Nov-12 15:33N 17°56' W 066°09'0 0.0
2016-Nov-12 14:33N 17°56' W 066°09'0 0.0
2016-Nov-12 13:33N 17°56' W 066°09'0 0.0
2016-Nov-12 12:33N 17°56' W 066°09'0 0.0
2016-Nov-12 11:09N 17°56' W 066°09'0 0.0
2016-Nov-12 09:27N 17°56' W 066°09'0 0.0
2016-Nov-12 06:33N 17°56' W 066°09'0 0.0
2016-Nov-12 03:33N 17°56' W 066°09'0 0.0
2016-Nov-12 02:33N 17°56' W 066°09'0 0.0
2016-Nov-12 00:33N 17°56' W 066°09'0 0.0
2016-Nov-11 23:33N 17°56' W 066°09'0 0.0
2016-Nov-11 19:33N 17°56' W 066°09'0 0.0
2016-Nov-11 15:33N 17°56' W 066°09'0 0.0
2016-Nov-11 14:33N 17°56' W 066°09'0 0.0
2016-Nov-11 10:33N 17°56' W 066°09'0 0.0
2016-Nov-11 09:33N 17°56' W 066°09'0 0.0
2016-Nov-11 06:30N 17°56' W 066°09'0 0.0
2016-Nov-11 05:27N 17°56' W 066°09'0 0.0
2016-Nov-11 04:33N 17°56' W 066°09'0 0.0
2016-Nov-11 03:33N 17°56' W 066°09'0 0.0
2016-Nov-11 02:30N 17°56' W 066°09'0 0.0
2016-Nov-11 01:33N 17°56' W 066°09'0 0.0
2016-Nov-11 00:33N 17°56' W 066°09'0 0.0
2016-Nov-10 23:33N 17°56' W 066°09'0 0.0
2016-Nov-10 22:33N 17°56' W 066°09'0 0.0
2016-Nov-10 20:33N 17°56' W 066°09'0 0.0
2016-Nov-10 18:33N 17°56' W 066°09'0 0.0
2016-Nov-10 16:33N 17°56' W 066°09'0 0.0
2016-Nov-10 15:33N 17°56' W 066°09'0 0.0
2016-Nov-10 11:33N 17°56' W 066°09'0 0.0
2016-Nov-10 10:33N 17°56' W 066°09'0 0.0
2016-Nov-10 09:33N 17°56' W 066°09'0 0.0
2016-Nov-10 08:33N 17°56' W 066°09'0 0.0
2016-Nov-10 07:33N 17°56' W 066°09'0 0.0
2016-Nov-10 06:33N 17°56' W 066°09'0 0.0
2016-Nov-10 05:33N 17°56' W 066°09'0 0.0
2016-Nov-10 04:33N 17°56' W 066°09'0 0.0
2016-Nov-10 00:33N 17°56' W 066°09'0 0.0
2016-Nov-09 22:33N 17°56' W 066°09'0 0.0
2016-Nov-09 20:36N 17°56' W 066°09'0 0.0
2016-Nov-09 19:51N 17°56' W 066°09'0 0.0
2016-Nov-09 19:03N 17°56' W 066°09'0 0.0
2016-Nov-09 18:33N 17°56' W 066°09'0 0.0
2016-Nov-09 17:33N 17°56' W 066°09'0 0.0
2016-Nov-09 15:33N 17°56' W 066°09'0 0.0
2016-Nov-09 13:30N 17°56' W 066°09'0 0.0
2016-Nov-09 08:33N 17°56' W 066°09'0 0.0
2016-Nov-09 07:33N 17°56' W 066°09'0 0.0
2016-Nov-09 05:33N 17°56' W 066°09'0 0.0
2016-Nov-09 04:33N 17°56' W 066°09'0 0.0
2016-Nov-09 02:33N 17°56' W 066°09'0 0.0
2016-Nov-08 23:33N 17°56' W 066°09'0 0.0
2016-Nov-08 22:30N 17°56' W 066°09'0 0.0
2016-Nov-08 21:33N 17°56' W 066°09'0 0.0
2016-Nov-08 20:33N 17°56' W 066°09'  

Dump ship's entire track history